Time;durP1;ratioP1;P1;durP2;ratioP2;P2;SDS_P1;SDS_P2;PMS_P1;PMS_P2;Temp;Humidity;BMP_temperature;BMP_pressure;BME280_temperature;BME280_humidity;BME280_pressure;Samples;Min_cycle;Max_cycle;Signal;HPM_P1;HPM_P2
2022/09/04 00:01:19;;;;;;;7.03;1.67;;;18.20;88.60;;;;;;5036579;28;20121;-68
2022/09/04 00:03:56;;;;;;;3.40;1.35;;;18.10;87.80;;;;;;5037535;28;20507;-68
2022/09/04 00:06:31;;;;;;;4.95;1.70;;;18.10;88.60;;;;;;5037953;28;20072;-68
2022/09/04 00:09:17;;;;;;;4.85;1.50;;;18.10;89.10;;;;;;5037605;28;20125;-68
2022/09/04 00:11:53;;;;;;;7.80;1.90;;;18.00;90.00;;;;;;5037960;28;20111;-68
2022/09/04 00:14:44;;;;;;;4.82;1.48;;;18.00;89.10;;;;;;5036326;28;20053;-68
2022/09/04 00:17:28;;;;;;;4.57;1.70;;;17.90;89.90;;;;;;5037827;28;20045;-68
2022/09/04 00:20:06;;;;;;;6.40;1.67;;;17.90;89.30;;;;;;5038080;28;20045;-68
2022/09/04 00:22:55;;;;;;;7.40;1.90;;;17.80;90.10;;;;;;5037619;28;20538;-69
2022/09/04 00:25:32;;;;;;;2.97;2.05;;;17.80;90.40;;;;;;5036436;28;20038;-68
2022/09/04 00:28:09;;;;;;;7.35;1.50;;;17.70;90.90;;;;;;5036292;28;20065;-68
2022/09/04 00:30:43;;;;;;;5.50;1.90;;;17.80;90.80;;;;;;5037787;28;20050;-68
2022/09/04 00:33:16;;;;;;;6.95;2.00;;;17.70;90.30;;;;;;5036265;28;20059;-68
2022/09/04 00:35:45;;;;;;;;;;;17.60;90.70;;;;;;5037700;28;20041;-68
2022/09/04 00:38:41;;;;;;;5.22;1.83;;;17.60;90.30;;;;;;5034637;28;19921;-68
2022/09/04 00:41:38;;;;;;;2.13;1.30;;;17.50;90.90;;;;;;5033094;28;20056;-68
2022/09/04 00:44:16;;;;;;;7.10;1.67;;;17.50;90.20;;;;;;5029572;28;20049;-68
2022/09/04 00:47:01;;;;;;;5.90;1.90;;;17.50;91.40;;;;;;5034191;28;20041;-68
2022/09/04 00:49:35;;;;;;;3.33;1.70;;;17.50;91.10;;;;;;5033218;28;20096;-68
2022/09/04 00:52:09;;;;;;;4.93;1.65;;;17.50;91.40;;;;;;5033025;28;20041;-68
2022/09/04 00:54:44;;;;;;;6.53;1.98;;;17.40;91.50;;;;;;5032683;28;20423;-68
2022/09/04 00:57:32;;;;;;;3.53;1.88;;;17.30;91.50;;;;;;5032916;28;20041;-68
2022/09/04 01:00:06;;;;;;;3.78;1.70;;;17.40;91.00;;;;;;5034086;28;20120;-68
2022/09/04 01:03:13;;;;;;;4.47;1.95;;;17.30;90.70;;;;;;5033995;28;20045;-68
2022/09/04 01:06:06;;;;;;;2.92;1.42;;;17.30;90.90;;;;;;5032605;28;20041;-68
2022/09/04 01:09:09;;;;;;;3.72;1.70;;;17.30;91.00;;;;;;5033780;28;20038;-68
2022/09/04 01:11:50;;;;;;;6.50;2.00;;;17.20;91.30;;;;;;5033703;28;20048;-68
2022/09/04 01:14:41;;;;;;;2.40;1.83;;;17.10;90.90;;;;;;5033466;28;20045;-68
2022/09/04 01:17:13;;;;;;;2.63;1.73;;;17.10;91.30;;;;;;5032626;28;20052;-68
2022/09/04 01:19:56;;;;;;;4.35;2.03;;;17.10;91.20;;;;;;5033720;28;20042;-68
2022/09/04 01:22:51;;;;;;;1.98;1.40;;;17.10;91.10;;;;;;5033553;28;20038;-68
2022/09/04 01:25:52;;;;;;;4.85;2.08;;;17.10;91.10;;;;;;5033357;28;20112;-68
2022/09/04 01:28:30;;;;;;;4.97;1.70;;;17.10;91.70;;;;;;5033566;28;20463;-68
2022/09/04 01:31:11;;;;;;;3.30;2.00;;;17.00;92.40;;;;;;5033647;28;20053;-68
2022/09/04 01:34:04;;;;;;;4.60;2.00;;;17.00;91.50;;;;;;5017282;28;20529;-68
2022/09/04 01:36:32;;;;;;;;;;;17.00;91.70;;;;;;5032521;28;20053;-68
2022/09/04 01:39:00;;;;;;;3.97;2.08;;;16.90;91.10;;;;;;5031923;28;19917;-68
2022/09/04 01:41:34;;;;;;;4.32;2.10;;;16.90;91.40;;;;;;5032947;28;20041;-68
2022/09/04 01:44:01;;;;;;;2.60;1.75;;;16.90;91.30;;;;;;5031507;28;20095;-68
2022/09/04 01:46:42;;;;;;;4.50;2.10;;;16.90;91.40;;;;;;5033435;28;20076;-68
2022/09/04 01:49:47;;;;;;;4.35;2.28;;;16.90;91.80;;;;;;5032820;28;20041;-68
2022/09/04 01:52:21;;;;;;;4.75;2.00;;;16.80;92.50;;;;;;5010756;28;20073;-68
2022/09/04 01:55:18;;;;;;;5.57;1.77;;;16.80;91.60;;;;;;5030032;28;20507;-68
2022/09/04 01:58:17;;;;;;;2.13;1.65;;;16.80;91.50;;;;;;5031772;28;20045;-69
2022/09/04 02:00:57;;;;;;;4.32;2.67;;;16.70;91.50;;;;;;5031728;28;20041;-68
2022/09/04 02:03:26;;;;;;;5.20;2.15;;;16.80;91.80;;;;;;5033049;28;20046;-68
2022/09/04 02:06:07;;;;;;;8.15;2.10;;;16.70;91.70;;;;;;5031458;28;20076;-68
2022/09/04 02:08:51;;;;;;;5.70;2.00;;;16.80;92.20;;;;;;5032621;28;20412;-68
2022/09/04 02:11:22;;;;;;;4.55;2.00;;;16.70;91.90;;;;;;5031264;28;20068;-69
2022/09/04 02:14:01;;;;;;;2.30;1.88;;;16.60;91.60;;;;;;5032412;28;20045;-68
2022/09/04 02:16:59;;;;;;;3.95;1.95;;;16.70;91.90;;;;;;5031373;28;20072;-69
2022/09/04 02:20:20;;;;;;;6.72;2.20;;;16.60;91.90;;;;;;5015041;28;20046;-68
2022/09/04 02:22:57;;;;;;;4.47;2.05;;;16.60;92.50;;;;;;5010144;28;20074;-68
2022/09/04 02:25:49;;;;;;;8.63;1.90;;;16.60;92.50;;;;;;5010053;28;20050;-68
2022/09/04 02:28:20;;;;;;;12.70;2.63;;;16.50;92.50;;;;;;4993899;28;20050;-68
2022/09/04 02:31:11;;;;;;;7.78;2.10;;;16.50;92.30;;;;;;5010181;28;20061;-68
2022/09/04 02:33:39;;;;;;;3.72;2.15;;;16.50;92.40;;;;;;5010106;28;20050;-69
2022/09/04 02:36:24;;;;;;;4.40;1.90;;;16.50;92.30;;;;;;5009751;28;20137;-68
2022/09/04 02:39:04;;;;;;;2.97;1.88;;;16.50;93.10;;;;;;5010113;28;20041;-68
2022/09/04 02:41:49;;;;;;;3.42;2.00;;;16.40;92.70;;;;;;5009848;28;20448;-68
2022/09/04 02:44:40;;;;;;;4.25;1.98;;;16.40;92.50;;;;;;5009555;28;20054;-68
2022/09/04 02:47:25;;;;;;;5.88;2.20;;;16.40;92.70;;;;;;5010032;28;20046;-68
2022/09/04 02:50:19;;;;;;;4.07;2.15;;;16.30;93.10;;;;;;5009873;28;20086;-68
2022/09/04 02:52:58;;;;;;;9.57;2.28;;;16.30;93.40;;;;;;4993464;28;20038;-68
2022/09/04 02:55:57;;;;;;;10.73;2.63;;;16.30;93.40;;;;;;5009643;28;20037;-69
2022/09/04 02:58:30;;;;;;;7.15;2.05;;;16.30;93.30;;;;;;5032023;28;20060;-68
2022/09/04 03:01:13;;;;;;;3.55;2.10;;;16.30;93.20;;;;;;5031042;28;20095;-68
2022/09/04 03:03:57;;;;;;;4.28;1.88;;;16.30;93.50;;;;;;5030464;28;20052;-68
2022/09/04 03:06:40;;;;;;;3.85;2.13;;;16.20;93.20;;;;;;5030803;28;20464;-68
2022/09/04 03:09:12;;;;;;;7.35;2.40;;;16.20;93.30;;;;;;5031557;28;20171;-69
2022/09/04 03:11:44;;;;;;;;;;;16.20;93.90;;;;;;5032429;28;20462;-68
2022/09/04 03:14:33;;;;;;;3.28;2.28;;;16.10;93.60;;;;;;5030159;28;19928;-68
2022/09/04 03:17:04;;;;;;;5.38;2.17;;;16.20;93.60;;;;;;5031744;28;20087;-68
2022/09/04 03:19:52;;;;;;;6.07;2.33;;;16.10;93.40;;;;;;5031559;28;20076;-68
2022/09/04 03:22:40;;;;;;;10.10;2.30;;;16.10;93.60;;;;;;5014097;28;20054;-68
2022/09/04 03:25:45;;;;;;;4.07;2.40;;;16.10;94.10;;;;;;5031413;28;20041;-68
2022/09/04 03:28:41;;;;;;;5.82;2.15;;;16.00;94.10;;;;;;5030283;28;20045;-68
2022/09/04 03:31:35;;;;;;;6.03;2.47;;;16.00;93.90;;;;;;5031465;28;20056;-68
2022/09/04 03:34:24;;;;;;;3.00;2.17;;;16.00;93.90;;;;;;5012687;28;20057;-68
2022/09/04 03:37:16;;;;;;;5.65;2.60;;;16.00;93.90;;;;;;5030218;28;20045;-68
2022/09/04 03:40:06;;;;;;;5.53;2.53;;;16.00;94.40;;;;;;5021194;28;20058;-68
2022/09/04 03:42:48;;;;;;;3.88;2.45;;;15.90;94.40;;;;;;5031300;28;20045;-68
2022/09/04 03:45:44;;;;;;;4.60;2.38;;;15.90;94.40;;;;;;5031314;28;20063;-68
2022/09/04 03:48:35;;;;;;;4.45;2.45;;;15.90;94.50;;;;;;5031512;28;20060;-68
2022/09/04 03:51:16;;;;;;;4.18;2.50;;;15.80;94.50;;;;;;5031300;28;20045;-68
2022/09/04 03:54:09;;;;;;;6.63;2.30;;;15.80;95.10;;;;;;5029853;28;20045;-68
2022/09/04 03:56:53;;;;;;;4.72;2.30;;;15.90;94.80;;;;;;5029697;28;20077;-68
2022/09/04 03:59:53;;;;;;;5.55;2.33;;;15.80;94.30;;;;;;5012467;28;20049;-69
2022/09/04 04:02:49;;;;;;;3.33;2.08;;;15.70;94.40;;;;;;5013361;28;20053;-68
2022/09/04 04:05:38;;;;;;;4.45;2.55;;;15.70;94.40;;;;;;5019618;28;20092;-69
2022/09/04 04:08:16;;;;;;;4.00;2.40;;;15.60;94.90;;;;;;5031254;28;20041;-68
2022/09/04 04:10:44;;;;;;;3.45;2.53;;;15.70;94.80;;;;;;5031192;28;20387;-68
2022/09/04 04:13:53;;;;;;;4.60;2.38;;;15.70;94.90;;;;;;5032115;28;20049;-69
2022/09/04 04:16:32;;;;;;;2.75;2.03;;;15.70;95.00;;;;;;5033612;28;20060;-68
2022/09/04 04:19:54;;;;;;;3.40;2.13;;;15.60;94.80;;;;;;5033633;28;20124;-68
2022/09/04 04:22:19;;;;;;;3.83;2.17;;;15.70;95.20;;;;;;4982964;28;20508;-68
2022/09/04 04:25:10;;;;;;;3.22;2.42;;;15.60;95.00;;;;;;5032965;28;20115;-68
2022/09/04 04:27:42;;;;;;;3.20;2.50;;;15.60;94.90;;;;;;5033651;28;20415;-68
2022/09/04 04:30:17;;;;;;;6.28;2.40;;;15.60;94.90;;;;;;5033372;28;20053;-69
2022/09/04 04:33:02;;;;;;;7.57;2.78;;;15.60;94.90;;;;;;5033207;28;20705;-68
2022/09/04 04:36:01;;;;;;;5.03;2.83;;;15.60;94.90;;;;;;5016712;28;20475;-68
2022/09/04 04:39:02;;;;;;;5.35;2.65;;;15.50;95.00;;;;;;5033688;28;20042;-68
2022/09/04 04:42:04;;;;;;;5.85;2.50;;;15.50;95.10;;;;;;5008991;28;20104;-68
2022/09/04 04:48:08;;;;;;;3.92;2.63;;;15.50;96.00;;;;;;5012187;28;20065;-68
2022/09/04 04:50:57;;;;;;;5.40;2.70;;;15.50;95.70;;;;;;4995140;28;20164;-68
2022/09/04 04:53:41;;;;;;;5.07;2.85;;;15.40;95.70;;;;;;4999407;28;20133;-68
2022/09/04 04:56:21;;;;;;;3.55;2.50;;;15.40;95.80;;;;;;5011885;28;20049;-68
2022/09/04 04:59:22;;;;;;;4.22;2.53;;;15.40;95.50;;;;;;5011887;28;20060;-68
2022/09/04 05:02:13;;;;;;;5.78;3.00;;;15.40;95.60;;;;;;4998156;28;20046;-68
2022/09/04 05:05:12;;;;;;;6.10;3.13;;;15.40;95.60;;;;;;5011558;28;20050;-68
2022/09/04 05:08:02;;;;;;;7.07;3.20;;;15.50;95.90;;;;;;4995417;28;20049;-68
2022/09/04 05:10:38;;;;;;;6.65;3.13;;;15.40;95.90;;;;;;5011745;28;20058;-68
2022/09/04 05:13:21;;;;;;;6.20;3.10;;;15.40;95.90;;;;;;5011658;28;20081;-68
2022/09/04 05:16:03;;;;;;;4.47;2.90;;;15.40;95.90;;;;;;5011372;28;20049;-68
2022/09/04 05:18:43;;;;;;;9.00;2.80;;;15.30;96.00;;;;;;5028976;28;20045;-68
2022/09/04 05:21:22;;;;;;;5.40;2.58;;;15.30;96.00;;;;;;5032332;28;20431;-68
2022/09/04 05:24:07;;;;;;;7.60;3.10;;;15.30;96.10;;;;;;5032518;28;20056;-69
2022/09/04 05:26:57;;;;;;;3.92;3.15;;;15.30;96.10;;;;;;5032649;28;20373;-68
2022/09/04 05:29:50;;;;;;;4.30;2.78;;;15.40;96.20;;;;;;5032313;28;20492;-68
2022/09/04 05:32:27;;;;;;;5.30;2.80;;;15.50;96.20;;;;;;5033608;28;20053;-68
2022/09/04 05:35:21;;;;;;;6.50;2.85;;;15.60;96.00;;;;;;5031940;28;20085;-68
2022/09/04 05:38:07;;;;;;;5.60;3.03;;;15.60;96.40;;;;;;5033523;28;20128;-68
2022/09/04 05:41:04;;;;;;;7.15;3.35;;;15.70;96.30;;;;;;5032941;28;20041;-68
2022/09/04 05:43:37;;;;;;;6.68;3.80;;;15.70;96.20;;;;;;5033175;28;20041;-68
2022/09/04 05:46:24;;;;;;;8.60;3.35;;;15.70;96.10;;;;;;5031471;28;20172;-68
2022/09/04 05:49:01;;;;;;;6.90;2.95;;;15.80;96.20;;;;;;5031961;28;20081;-68
2022/09/04 05:51:47;;;;;;;6.53;3.60;;;15.90;96.00;;;;;;5031810;28;20507;-68
2022/09/04 05:54:34;;;;;;;13.23;3.92;;;15.90;96.20;;;;;;5032800;28;20052;-68
2022/09/04 05:57:27;;;;;;;6.32;3.53;;;16.00;96.30;;;;;;5033300;28;20077;-68
2022/09/04 06:00:26;;;;;;;7.05;3.00;;;16.10;96.00;;;;;;5033010;28;20116;-68
2022/09/04 06:03:21;;;;;;;6.18;3.17;;;16.10;96.20;;;;;;5009950;28;20252;-68
2022/09/04 06:06:22;;;;;;;7.25;3.20;;;16.10;95.90;;;;;;5032552;28;20163;-69
2022/09/04 06:09:16;;;;;;;6.88;3.17;;;16.20;95.90;;;;;;5028424;28;20045;-68
2022/09/04 06:12:20;;;;;;;6.47;2.90;;;16.20;96.10;;;;;;5011055;28;20539;-68
2022/09/04 06:15:07;;;;;;;6.72;3.15;;;16.20;95.90;;;;;;5032020;28;20049;-69
2022/09/04 06:17:38;;;;;;;6.90;3.35;;;16.30;95.80;;;;;;5032515;28;20037;-68
2022/09/04 06:20:27;;;;;;;31.90;3.95;;;16.40;95.90;;;;;;5031169;28;20048;-68
2022/09/04 06:23:29;;;;;;;9.07;3.38;;;16.40;96.00;;;;;;5014997;28;20099;-68
2022/09/04 06:26:14;;;;;;;9.32;3.60;;;16.50;96.30;;;;;;5031142;28;20049;-68
2022/09/04 06:28:53;;;;;;;4.88;3.17;;;16.50;96.20;;;;;;5032333;28;20041;-68
2022/09/04 06:31:18;;;;;;;5.65;3.00;;;16.50;96.20;;;;;;5032254;28;20067;-68
2022/09/04 06:34:14;;;;;;;7.25;3.28;;;16.60;96.10;;;;;;5032026;28;20511;-68
2022/09/04 06:37:33;;;;;;;9.25;3.40;;;16.60;96.30;;;;;;5031441;28;20045;-68
2022/09/04 06:40:32;;;;;;;5.35;3.13;;;16.50;96.50;;;;;;5010029;28;20184;-68
2022/09/04 06:43:12;;;;;;;7.60;3.65;;;16.70;96.30;;;;;;5010073;28;20042;-68
2022/09/04 06:46:28;;;;;;;4.90;3.28;;;16.70;96.30;;;;;;5009884;28;20121;-68
2022/09/04 06:49:20;;;;;;;8.73;3.78;;;16.80;96.50;;;;;;4989584;28;20100;-68
2022/09/04 06:51:52;;;;;;;5.60;3.13;;;16.80;96.60;;;;;;4993594;28;20050;-68
2022/09/04 06:54:56;;;;;;;7.40;3.10;;;16.80;96.50;;;;;;5009475;28;20585;-69
2022/09/04 06:57:45;;;;;;;4.65;3.13;;;16.90;96.60;;;;;;4964568;28;20369;-69
2022/09/04 07:00:12;;;;;;;7.10;3.15;;;17.00;96.70;;;;;;5009733;28;20042;-70
2022/09/04 07:02:55;;;;;;;7.47;3.25;;;17.00;96.60;;;;;;4993288;28;20050;-68
2022/09/04 07:05:49;;;;;;;8.88;2.50;;;17.10;96.50;;;;;;5009358;28;20049;-68
2022/09/04 07:09:02;;;;;;;7.03;3.00;;;17.20;96.90;;;;;;5009618;28;20408;-69
2022/09/04 07:12:02;;;;;;;4.00;2.42;;;17.20;96.90;;;;;;4925516;28;20417;-69
2022/09/04 07:15:03;;;;;;;6.63;3.10;;;17.20;96.80;;;;;;5026620;28;20084;-69
2022/09/04 07:17:38;;;;;;;6.90;3.50;;;17.30;97.00;;;;;;5030660;28;20468;-69
2022/09/04 07:20:10;;;;;;;6.72;2.80;;;17.40;96.50;;;;;;5031531;28;20033;-67
2022/09/04 07:22:56;;;;;;;4.22;3.25;;;17.40;96.20;;;;;;5031578;28;20073;-69
2022/09/04 07:25:48;;;;;;;5.65;2.88;;;17.40;96.40;;;;;;5031474;28;20399;-69
2022/09/04 07:28:39;;;;;;;5.90;2.97;;;17.40;96.60;;;;;;5030532;28;20119;-69
2022/09/04 07:31:21;;;;;;;5.13;2.58;;;17.50;96.70;;;;;;5030589;28;20045;-69
2022/09/04 07:34:24;;;;;;;4.75;2.65;;;17.60;96.80;;;;;;5029965;28;20052;-69
2022/09/04 07:37:07;;;;;;;6.60;3.42;;;17.70;97.20;;;;;;5030113;28;20050;-69
2022/09/04 07:40:12;;;;;;;7.90;2.45;;;17.70;96.80;;;;;;5031629;28;20037;-69
2022/09/04 07:42:56;;;;;;;6.93;3.15;;;17.80;97.10;;;;;;5030241;28;20052;-69
2022/09/04 07:45:38;;;;;;;5.80;2.75;;;17.90;96.40;;;;;;5031238;28;20037;-69
2022/09/04 07:48:22;;;;;;;5.40;2.63;;;17.90;96.80;;;;;;5032202;28;20069;-69
2022/09/04 07:51:09;;;;;;;4.38;2.50;;;18.00;96.60;;;;;;5034202;28;20128;-69
2022/09/04 07:54:01;;;;;;;7.28;2.80;;;18.20;96.70;;;;;;5035270;28;20052;-69
2022/09/04 07:56:54;;;;;;;4.10;2.95;;;18.30;96.60;;;;;;5034063;28;20064;-69
2022/09/04 07:59:31;;;;;;;4.70;2.38;;;18.30;96.70;;;;;;5035479;28;20096;-69
2022/09/04 08:02:20;;;;;;;4.72;2.80;;;18.40;96.50;;;;;;5033740;28;20500;-69
2022/09/04 08:04:58;;;;;;;6.03;3.03;;;18.40;96.30;;;;;;5023459;28;20057;-69
2022/09/04 08:07:32;;;;;;;4.78;2.60;;;18.40;96.60;;;;;;5033880;28;20037;-70
2022/09/04 08:10:24;;;;;;;5.97;2.83;;;18.50;96.50;;;;;;5034932;28;20041;-69
2022/09/04 08:13:14;;;;;;;6.78;2.50;;;18.50;96.50;;;;;;5017126;28;20046;-69
2022/09/04 08:16:10;;;;;;;7.40;2.47;;;18.60;96.40;;;;;;5033600;28;20072;-69
2022/09/04 08:18:51;;;;;;;5.68;2.65;;;18.70;96.70;;;;;;5033291;28;20045;-70
2022/09/04 08:21:32;;;;;;;6.47;2.72;;;18.90;96.70;;;;;;5034781;28;20391;-69
2022/09/04 08:24:19;;;;;;;5.00;2.42;;;19.00;96.70;;;;;;5034540;28;20486;-70
2022/09/04 08:26:50;;;;;;;8.63;3.05;;;19.00;96.20;;;;;;5034824;28;20037;-69
2022/09/04 08:29:31;;;;;;;2.88;2.25;;;19.00;95.90;;;;;;5033425;28;20045;-69
2022/09/04 08:32:12;;;;;;;3.67;2.05;;;19.20;96.20;;;;;;5033532;28;20132;-69
2022/09/04 08:34:44;;;;;;;5.50;2.85;;;19.20;96.20;;;;;;5025176;28;20054;-70
2022/09/04 08:37:29;;;;;;;;;;;19.30;96.20;;;;;;5015220;28;20042;-68
2022/09/04 08:40:28;;;;;;;5.38;2.58;;;19.30;95.90;;;;;;5013101;28;19917;-69
2022/09/04 08:43:33;;;;;;;3.28;2.40;;;19.50;95.80;;;;;;5013069;28;20042;-69
2022/09/04 08:46:45;;;;;;;4.82;2.28;;;19.50;96.00;;;;;;5012997;28;20049;-69
2022/09/04 08:49:44;;;;;;;6.30;2.78;;;19.50;95.80;;;;;;5012116;28;20103;-69
2022/09/04 08:52:49;;;;;;;10.05;2.65;;;19.60;95.80;;;;;;5013300;28;20480;-69
2022/09/04 08:55:45;;;;;;;3.17;2.55;;;19.60;95.70;;;;;;5012775;28;20125;-69
2022/09/04 08:58:39;;;;;;;2.60;2.35;;;19.70;95.70;;;;;;5014239;28;20053;-69
2022/09/04 09:01:32;;;;;;;3.92;2.30;;;19.90;95.80;;;;;;5012918;28;20053;-69
2022/09/04 09:04:25;;;;;;;3.10;2.13;;;19.90;95.80;;;;;;5013735;28;20041;-69
2022/09/04 09:07:09;;;;;;;5.30;2.47;;;20.10;96.10;;;;;;5014249;28;20042;-69
2022/09/04 09:10:09;;;;;;;6.28;2.78;;;20.10;95.90;;;;;;5012423;28;20046;-69
2022/09/04 09:13:10;;;;;;;3.22;2.72;;;20.30;96.10;;;;;;5011745;28;20056;-69
2022/09/04 09:16:02;;;;;;;3.22;2.65;;;20.40;95.70;;;;;;5012022;28;20038;-69
2022/09/04 09:18:44;;;;;;;9.15;2.40;;;20.40;95.60;;;;;;5014003;28;20042;-69
2022/09/04 09:21:31;;;;;;;5.03;2.58;;;20.50;95.70;;;;;;5013970;28;20037;-69
2022/09/04 09:24:30;;;;;;;4.55;2.42;;;20.50;95.40;;;;;;5013391;28;20499;-69
2022/09/04 09:27:23;;;;;;;3.90;2.00;;;20.60;95.90;;;;;;5012744;28;20076;-69
2022/09/04 09:30:14;;;;;;;4.40;2.45;;;20.70;95.40;;;;;;5013713;28;20045;-69
2022/09/04 09:33:14;;;;;;;6.45;2.42;;;20.70;95.20;;;;;;5013589;28;20519;-69
2022/09/04 09:36:00;;;;;;;6.78;2.28;;;20.70;95.00;;;;;;4995756;28;20041;-69
2022/09/04 09:38:54;;;;;;;7.60;2.25;;;20.80;95.10;;;;;;5012168;28;20128;-69
2022/09/04 09:41:42;;;;;;;3.72;2.38;;;20.80;95.70;;;;;;5011506;28;20049;-70
2022/09/04 09:44:18;;;;;;;7.30;2.30;;;21.10;95.70;;;;;;5011698;28;20038;-70
2022/09/04 09:47:18;;;;;;;3.10;2.22;;;21.10;94.90;;;;;;5013596;28;20103;-69
2022/09/04 09:50:02;;;;;;;5.95;2.20;;;21.30;94.80;;;;;;5012119;28;20038;-69
2022/09/04 09:52:59;;;;;;;4.22;2.15;;;21.50;95.10;;;;;;5013240;28;20045;-69
2022/09/04 09:55:27;;;;;;;2.20;2.00;;;21.40;94.70;;;;;;4995309;28;20050;-70
2022/09/04 09:58:25;;;;;;;4.75;2.33;;;21.60;95.20;;;;;;5011864;28;20045;-70
2022/09/04 10:01:18;;;;;;;5.07;2.60;;;21.70;94.60;;;;;;4995733;28;20482;-69
2022/09/04 10:04:10;;;;;;;3.88;2.00;;;21.60;94.20;;;;;;5011856;28;20073;-69
2022/09/04 10:06:43;;;;;;;;;;;21.70;94.30;;;;;;4997216;28;20057;-69
2022/09/04 10:09:30;;;;;;;4.60;1.95;;;21.80;94.60;;;;;;5011492;28;19964;-69
2022/09/04 10:12:18;;;;;;;5.55;2.25;;;22.00;94.90;;;;;;5012766;28;20049;-69
2022/09/04 10:15:08;;;;;;;3.90;2.20;;;21.90;94.10;;;;;;5011531;28;20415;-69
2022/09/04 10:18:09;;;;;;;3.67;1.77;;;21.90;93.90;;;;;;5012857;28;20077;-69
2022/09/04 10:20:56;;;;;;;4.28;2.13;;;22.00;93.80;;;;;;5011374;28;20041;-69
2022/09/04 10:23:52;;;;;;;3.55;2.13;;;22.20;94.00;;;;;;5011723;28;20567;-69
2022/09/04 10:26:50;;;;;;;4.10;2.30;;;22.20;94.40;;;;;;5012893;28;20048;-69
2022/09/04 10:29:22;;;;;;;2.97;1.92;;;22.20;94.10;;;;;;5011663;28;20069;-69
2022/09/04 10:32:03;;;;;;;5.25;2.08;;;22.30;94.20;;;;;;5011573;28;20042;-69
2022/09/04 10:35:08;;;;;;;4.38;1.77;;;22.40;94.40;;;;;;5012519;28;20042;-69
2022/09/04 10:38:12;;;;;;;2.83;1.90;;;22.50;94.00;;;;;;5011443;28;20052;-69
2022/09/04 10:41:14;;;;;;;2.60;2.17;;;22.50;94.20;;;;;;5012355;28;20048;-69
2022/09/04 10:43:55;;;;;;;2.67;1.85;;;22.60;94.20;;;;;;5011031;28;20101;-69
2022/09/04 10:46:26;;;;;;;6.93;2.05;;;22.80;93.70;;;;;;5012439;28;20038;-69
2022/09/04 10:49:16;;;;;;;4.63;2.25;;;22.80;93.40;;;;;;5012325;28;20041;-69
2022/09/04 10:51:52;;;;;;;4.72;1.80;;;22.80;93.90;;;;;;5011055;28;20041;-70
2022/09/04 10:54:53;;;;;;;6.72;2.33;;;22.80;94.10;;;;;;5011891;28;20054;-69
2022/09/04 10:57:24;;;;;;;2.85;1.70;;;22.80;93.90;;;;;;5011012;28;20088;-69
2022/09/04 11:00:11;;;;;;;4.47;2.08;;;23.00;93.80;;;;;;5012403;28;20050;-69
2022/09/04 11:02:51;;;;;;;2.45;1.90;;;23.00;93.70;;;;;;5012053;28;20088;-69
2022/09/04 11:05:51;;;;;;;3.97;1.90;;;23.30;94.10;;;;;;5010089;28;20072;-69
2022/09/04 11:08:41;;;;;;;4.55;2.00;;;23.20;94.10;;;;;;5011913;28;20160;-69
2022/09/04 11:11:46;;;;;;;5.30;1.83;;;23.20;93.40;;;;;;5012106;28;20038;-69
2022/09/04 11:14:45;;;;;;;3.47;1.67;;;23.30;94.00;;;;;;5007182;28;20467;-70
2022/09/04 11:17:35;;;;;;;3.28;2.13;;;23.50;93.70;;;;;;5002870;28;20058;-69
2022/09/04 11:20:38;;;;;;;5.65;2.25;;;23.40;93.80;;;;;;5010895;28;20443;-68
2022/09/04 11:23:55;;;;;;;2.20;1.88;;;23.50;93.40;;;;;;5011489;28;20046;-69
2022/09/04 11:26:46;;;;;;;4.80;2.40;;;23.60;93.60;;;;;;4993689;28;20565;-69
2022/09/04 11:29:21;;;;;;;4.55;2.05;;;23.80;93.90;;;;;;5010743;28;20588;-69
2022/09/04 11:31:56;;;;;;;3.05;1.75;;;23.90;94.00;;;;;;5010720;28;20116;-69
2022/09/04 11:34:41;;;;;;;7.35;2.13;;;23.80;94.40;;;;;;5010299;28;20077;-70
2022/09/04 11:37:16;;;;;;;6.85;2.35;;;23.90;94.70;;;;;;5010641;28;20046;-70
2022/09/04 11:39:47;;;;;;;4.05;2.25;;;23.90;95.20;;;;;;5010619;28;20084;-69
2022/09/04 11:42:28;;;;;;;4.30;1.95;;;24.00;94.40;;;;;;4993543;28;20046;-69
2022/09/04 11:45:34;;;;;;;5.43;1.90;;;24.10;94.20;;;;;;5010362;28;20527;-70
2022/09/04 11:48:41;;;;;;;6.57;2.17;;;24.10;94.20;;;;;;5011766;28;20492;-69
2022/09/04 11:51:16;;;;;;;2.20;1.83;;;23.90;94.10;;;;;;5010852;28;20516;-69
2022/09/04 11:54:14;;;;;;;5.70;2.00;;;24.30;94.30;;;;;;5010238;28;20042;-69
2022/09/04 11:56:50;;;;;;;2.35;2.03;;;24.30;94.70;;;;;;5010399;28;20042;-69
2022/09/04 11:59:45;;;;;;;9.20;2.30;;;24.10;93.60;;;;;;4994187;28;20084;-69
2022/09/04 12:02:14;;;;;;;3.60;2.03;;;24.10;94.40;;;;;;5007364;28;20077;-69
2022/09/04 12:05:04;;;;;;;4.70;2.00;;;24.40;93.80;;;;;;5001532;28;20042;-69
2022/09/04 12:08:03;;;;;;;5.75;1.92;;;24.40;93.90;;;;;;5018916;28;20042;-69
2022/09/04 12:11:08;;;;;;;8.52;2.33;;;24.40;93.00;;;;;;5022235;28;20118;-69
2022/09/04 12:13:37;;;;;;;3.15;1.85;;;24.30;92.60;;;;;;5010178;28;20597;-69
2022/09/04 12:16:21;;;;;;;3.15;1.90;;;24.50;93.10;;;;;;5010247;28;20091;-69
2022/09/04 12:18:53;;;;;;;3.72;2.03;;;24.50;93.30;;;;;;5010443;28;20034;-69
2022/09/04 12:21:36;;;;;;;4.47;2.38;;;24.50;92.80;;;;;;5010236;28;20539;-69
2022/09/04 12:24:38;;;;;;;5.40;2.00;;;24.40;93.30;;;;;;5011332;28;20512;-69
2022/09/04 12:27:21;;;;;;;7.13;1.90;;;24.50;93.50;;;;;;5010142;28;20049;-69
2022/09/04 12:30:08;;;;;;;3.13;2.00;;;24.70;92.40;;;;;;5010333;28;20466;-69
2022/09/04 12:32:59;;;;;;;3.38;2.13;;;24.60;92.30;;;;;;5010366;28;20535;-69
2022/09/04 12:35:53;;;;;;;3.60;1.85;;;24.50;92.40;;;;;;5014692;28;20135;-68
2022/09/04 12:38:40;;;;;;;4.22;1.98;;;24.60;93.20;;;;;;5013516;28;20169;-69
2022/09/04 12:41:15;;;;;;;4.18;2.00;;;24.70;92.60;;;;;;5014643;28;20077;-68
2022/09/04 12:44:04;;;;;;;4.82;2.22;;;24.70;92.60;;;;;;5014615;28;20507;-69
2022/09/04 12:46:49;;;;;;;6.53;1.90;;;24.70;92.70;;;;;;5013498;28;20077;-69
2022/09/04 12:49:41;;;;;;;2.03;1.77;;;24.80;92.30;;;;;;5014689;28;20580;-68
2022/09/04 12:52:32;;;;;;;5.57;1.75;;;24.70;92.20;;;;;;5025311;28;20040;-69
2022/09/04 12:55:18;;;;;;;3.15;1.92;;;24.70;92.30;;;;;;5040507;28;20117;-69
2022/09/04 12:57:59;;;;;;;3.85;1.92;;;24.90;92.30;;;;;;5028861;28;20033;-70
2022/09/04 13:00:39;;;;;;;3.80;1.73;;;24.90;92.50;;;;;;5032681;28;20561;-69
2022/09/04 13:03:24;;;;;;;4.18;1.90;;;25.20;92.50;;;;;;5031391;28;20045;-68
2022/09/04 13:06:27;;;;;;;4.28;1.98;;;25.10;92.60;;;;;;5032843;28;20076;-69
2022/09/04 13:09:17;;;;;;;2.90;1.73;;;25.00;92.30;;;;;;5021433;28;20033;-69
2022/09/04 13:12:09;;;;;;;2.97;2.10;;;25.20;92.30;;;;;;5032741;28;20041;-69
2022/09/04 13:14:48;;;;;;;3.10;2.08;;;25.10;91.80;;;;;;5014815;28;20120;-69
2022/09/04 13:17:42;;;;;;;2.30;1.77;;;25.20;92.30;;;;;;5018813;28;20049;-69
2022/09/04 13:20:26;;;;;;;5.25;2.05;;;25.40;91.80;;;;;;5031263;28;20073;-69
2022/09/04 13:23:34;;;;;;;6.47;2.03;;;25.30;92.00;;;;;;5032545;28;20111;-69
2022/09/04 13:26:09;;;;;;;4.53;1.90;;;25.30;91.90;;;;;;5021935;28;20045;-69
2022/09/04 13:28:36;;;;;;;3.50;2.33;;;25.50;91.60;;;;;;5030951;28;20045;-69
2022/09/04 13:31:26;;;;;;;5.00;2.33;;;25.30;91.80;;;;;;5032634;28;20164;-69
2022/09/04 13:34:05;;;;;;;3.33;2.00;;;25.40;91.70;;;;;;5030866;28;20077;-69
2022/09/04 13:37:05;;;;;;;3.28;1.80;;;25.40;91.90;;;;;;5031057;28;20041;-70
2022/09/04 13:39:49;;;;;;;2.92;2.05;;;25.40;91.60;;;;;;5031081;28;20049;-69
2022/09/04 13:43:06;;;;;;;6.68;1.83;;;25.50;91.70;;;;;;5030734;28;20044;-69
2022/09/04 13:46:02;;;;;;;2.50;1.80;;;25.40;91.30;;;;;;4986239;28;20108;-69
2022/09/04 13:48:40;;;;;;;4.65;2.00;;;25.30;92.20;;;;;;5028380;28;20045;-69
2022/09/04 13:51:22;;;;;;;3.58;2.00;;;25.30;91.50;;;;;;5039774;28;20124;-69
2022/09/04 13:53:56;;;;;;;4.22;1.63;;;25.40;91.40;;;;;;5033829;28;20043;-70
2022/09/04 13:56:31;;;;;;;3.60;1.80;;;25.30;91.30;;;;;;5030754;28;20400;-70
2022/09/04 13:59:08;;;;;;;4.35;2.00;;;25.30;91.10;;;;;;5032013;28;20096;-69
2022/09/04 14:01:44;;;;;;;2.25;1.70;;;25.40;91.90;;;;;;5030425;28;20049;-69
2022/09/04 14:04:16;;;;;;;2.65;2.00;;;25.30;91.40;;;;;;5030465;28;20047;-69
2022/09/04 14:06:43;;;;;;;3.40;2.03;;;25.40;91.50;;;;;;5031595;28;20045;-69
2022/09/04 14:09:09;;;;;;;3.33;1.92;;;25.60;91.70;;;;;;5031655;28;20037;-69
2022/09/04 14:12:04;;;;;;;3.15;1.77;;;25.60;91.40;;;;;;5031366;28;20534;-69
2022/09/04 14:14:58;;;;;;;4.30;1.98;;;25.60;91.10;;;;;;5031570;28;20209;-70
2022/09/04 14:17:32;;;;;;;5.35;1.70;;;25.50;91.10;;;;;;5017040;28;20045;-69
2022/09/04 14:20:17;;;;;;;3.67;1.75;;;25.50;91.00;;;;;;5031429;28;20049;-69
2022/09/04 14:23:20;;;;;;;3.60;1.67;;;25.60;91.50;;;;;;5031957;28;20515;-70
2022/09/04 14:26:15;;;;;;;2.83;2.00;;;25.70;91.40;;;;;;5028671;28;20045;-70
2022/09/04 14:28:53;;;;;;;3.50;2.00;;;25.60;92.00;;;;;;5030007;28;20052;-69
2022/09/04 14:31:34;;;;;;;2.20;1.80;;;25.60;91.60;;;;;;5030345;28;20056;-69
2022/09/04 14:34:12;;;;;;;4.07;2.17;;;25.60;91.30;;;;;;5030911;28;20084;-70